Terminal Aerodrome Forecast
Issued by NWS

Home | Current Version | Previous Version | Text Only | Print | Product List | Glossary On
Versions: 1 2 3 4 5 6 7 8 9 10 11 12 13 14 15 16 17 18 19 20 21 22 23 24 25 26 27 28 29 30 31 32
000
FTUS44 KLZK 161016 AAB
TAFHOT
TAF AMD
KHOT 161016Z 1610/1706 19007KT P6SM OVC025
      TEMPO 1610/1613 TSRA OVC050CB
     FM161600 22009KT P6SM VCTS BKN040CB OVC080
      TEMPO 1616/1619 TSRA OVC040CB
     FM162000 22007KT P6SM VCSH OVC050
     FM170300 18003KT P6SM OVC100=

USA.gov is the U.S. government's official web portal to all federal, state and local government web resources and services.